createdAt,value
2022-08-22T00:08:28.649Z,67.21
2022-08-22T00:13:43.223Z,65.81
2022-08-22T00:19:25.324Z,69.23
2022-08-22T00:24:46.639Z,68.54
2022-08-22T00:29:55.098Z,67.31
2022-08-22T00:35:02.447Z,68.21
2022-08-22T00:40:41.729Z,70.72
2022-08-22T00:45:58.275Z,68.62
2022-08-22T00:51:09.316Z,69.14
2022-08-22T00:56:38.973Z,69.72
2022-08-22T01:02:01.392Z,67.72
2022-08-22T01:07:03.131Z,73.77
2022-08-22T01:12:34.108Z,73.61
2022-08-22T01:17:57.561Z,74.43
2022-08-22T01:23:15.429Z,69.32
2022-08-22T01:28:35.197Z,75.11
2022-08-22T01:34:14.432Z,71.48
2022-08-22T01:39:34.153Z,73.09
2022-08-22T01:44:53.708Z,77.37
2022-08-22T01:50:03.993Z,74.39
2022-08-22T01:55:21.367Z,76.92
2022-08-22T02:00:35.487Z,76.80
2022-08-22T02:05:51.398Z,72.19
2022-08-22T02:11:07.080Z,77.16
2022-08-22T02:16:19.958Z,70.25
2022-08-22T02:21:40.526Z,68.56
2022-08-22T02:27:05.010Z,68.93
2022-08-22T02:32:21.538Z,69.25
2022-08-22T02:37:34.843Z,69.64
2022-08-22T02:42:48.462Z,70.19
2022-08-22T02:47:59.942Z,70.26
2022-08-22T02:53:16.386Z,69.16
2022-08-22T02:58:26.460Z,69.28
2022-08-22T03:03:31.655Z,68.77
2022-08-22T03:08:37.948Z,70.20
2022-08-22T03:13:49.283Z,69.77
2022-08-22T03:19:18.723Z,72.67
2022-08-22T03:24:25.870Z,70.53
2022-08-22T03:29:41.485Z,69.83
2022-08-22T03:34:56.154Z,72.31
2022-08-22T03:40:06.985Z,71.72
2022-08-22T03:45:40.557Z,73.40
2022-08-22T03:51:08.897Z,74.01
2022-08-22T03:56:27.911Z,79.37
2022-08-22T04:02:42.527Z,74.34
2022-08-22T04:07:35.219Z,78.94
2022-08-22T04:12:54.917Z,76.24
2022-08-22T04:18:23.947Z,74.72
2022-08-22T04:23:57.806Z,75.31
2022-08-22T04:29:07.976Z,75.44
2022-08-22T04:34:19.606Z,74.52
2022-08-22T04:39:41.685Z,72.60
2022-08-22T04:45:09.551Z,75.31
2022-08-22T04:50:23.497Z,71.68
2022-08-22T04:55:49.471Z,74.13
2022-08-22T05:00:58.100Z,74.23
2022-08-22T05:06:02.843Z,75.21
2022-08-22T05:11:06.887Z,74.58
2022-08-22T05:16:19.955Z,79.20
2022-08-22T05:21:29.464Z,73.83
2022-08-22T05:26:38.504Z,75.69
2022-08-22T05:31:49.387Z,72.71
2022-08-22T05:37:00.153Z,72.95
2022-08-22T05:42:03.508Z,74.26
2022-08-22T05:47:16.978Z,76.46
2022-08-22T05:52:27.365Z,75.38
2022-08-22T05:57:32.390Z,74.07
2022-08-22T06:02:58.608Z,74.32
2022-08-22T06:08:07.443Z,72.18
2022-08-22T06:13:15.069Z,75.78
2022-08-22T06:18:22.577Z,76.97
2022-08-22T06:23:30.418Z,72.66
2022-08-22T06:28:37.945Z,75.41
2022-08-22T06:34:25.041Z,74.86
2022-08-22T06:39:32.167Z,72.77
2022-08-22T06:44:39.415Z,73.59
2022-08-22T06:49:44.372Z,72.90
2022-08-22T06:54:48.466Z,72.28
2022-08-22T06:59:54.596Z,72.01
2022-08-22T07:04:56.115Z,71.65
2022-08-22T07:09:57.777Z,70.58
2022-08-22T07:15:09.681Z,72.78
2022-08-22T07:20:25.889Z,71.69
2022-08-22T07:25:29.173Z,69.60
2022-08-22T07:30:50.110Z,70.59
2022-08-22T07:36:05.828Z,68.87
2022-08-22T07:41:40.104Z,68.87
2022-08-22T07:46:56.439Z,68.77
2022-08-22T07:52:09.514Z,69.50
2022-08-22T07:57:22.371Z,69.70
2022-08-22T08:02:25.377Z,69.09
2022-08-22T08:07:29.107Z,66.94
2022-08-22T08:12:39.295Z,68.86
2022-08-22T08:17:43.008Z,67.79
2022-08-22T08:22:45.906Z,66.65
2022-08-22T08:28:07.627Z,67.29
2022-08-22T08:33:24.942Z,66.41
2022-08-22T08:38:51.213Z,66.28
2022-08-22T08:44:23.768Z,65.09
2022-08-22T08:49:55.794Z,64.48
2022-08-22T09:01:14.013Z,63.38
2022-08-22T09:06:37.179Z,62.74
2022-08-22T09:12:01.542Z,61.50
2022-08-22T09:17:14.930Z,60.10
2022-08-22T09:22:16.303Z,60.68
2022-08-22T09:27:36.469Z,61.04
2022-08-22T09:32:56.458Z,60.59
2022-08-22T09:38:19.587Z,60.10
2022-08-22T09:40:15.240Z,62.64
2022-08-22T09:43:48.808Z,61.41
2022-08-22T09:49:00.130Z,58.76
2022-08-22T09:54:31.596Z,58.78
2022-08-22T09:59:34.300Z,58.09
2022-08-22T10:05:00.730Z,54.25
2022-08-22T10:10:17.695Z,56.14
2022-08-22T10:15:31.862Z,56.51
2022-08-22T10:20:50.353Z,55.92
2022-08-22T10:26:01.644Z,52.82
2022-08-22T10:31:19.907Z,57.06
2022-08-22T10:36:34.147Z,56.89
2022-08-22T10:41:54.544Z,59.27
2022-08-22T10:47:16.743Z,57.16
2022-08-22T10:52:24.651Z,58.44
2022-08-22T10:57:29.062Z,57.25
2022-08-22T11:02:47.520Z,53.23
2022-08-22T11:07:59.515Z,52.41
2022-08-22T11:13:22.749Z,57.04
2022-08-22T11:18:33.682Z,54.12
2022-08-22T11:23:38.502Z,55.08
2022-08-22T11:29:13.460Z,52.48
2022-08-22T11:34:34.390Z,53.42
2022-08-22T11:40:04.242Z,54.39
2022-08-22T11:45:08.230Z,54.22
2022-08-22T11:50:34.527Z,55.94
2022-08-22T11:56:14.337Z,53.50
2022-08-22T12:01:19.585Z,54.66
2022-08-22T12:06:40.375Z,53.39
2022-08-22T12:12:01.647Z,48.40
2022-08-22T12:17:08.860Z,47.66
2022-08-22T12:22:16.509Z,47.67
2022-08-22T12:27:54.103Z,47.99
2022-08-22T12:33:33.125Z,44.21
2022-08-22T12:38:59.608Z,48.33
2022-08-22T12:44:33.729Z,49.93
2022-08-22T12:49:41.504Z,42.38
2022-08-22T12:55:13.825Z,42.45
2022-08-22T13:00:26.920Z,49.93
2022-08-22T13:05:37.895Z,48.35
2022-08-22T13:10:47.819Z,48.72
2022-08-22T13:21:21.957Z,49.35
2022-08-22T13:26:33.045Z,45.23
2022-08-22T13:31:41.072Z,47.79
2022-08-22T13:36:51.696Z,46.97
2022-08-22T13:41:58.015Z,50.12
2022-08-22T13:47:14.607Z,48.98
2022-08-22T13:52:55.612Z,51.38
2022-08-22T13:58:11.319Z,48.16
2022-08-22T14:03:21.259Z,49.64
2022-08-22T14:08:32.904Z,47.85
2022-08-22T14:13:49.011Z,44.94
2022-08-22T14:18:56.317Z,45.94
2022-08-22T14:24:12.656Z,50.02
2022-08-22T14:29:18.666Z,48.46
2022-08-22T14:34:21.026Z,49.02
2022-08-22T14:39:30.441Z,46.48
2022-08-22T14:44:43.866Z,47.95
2022-08-22T14:50:02.651Z,43.39
2022-08-22T14:55:36.348Z,41.34
2022-08-22T15:00:44.337Z,45.52
2022-08-22T15:05:53.924Z,49.64
2022-08-22T15:11:12.824Z,51.00
2022-08-22T15:16:23.091Z,50.45
2022-08-22T15:21:27.805Z,49.78
2022-08-22T15:26:38.389Z,48.11
2022-08-22T15:31:41.637Z,46.12
2022-08-22T15:42:50.455Z,40.45
2022-08-22T15:47:53.693Z,41.72
2022-08-22T15:53:26.150Z,45.05
2022-08-22T15:58:27.655Z,44.61
2022-08-22T16:03:33.026Z,47.58
2022-08-22T16:08:37.298Z,44.10
2022-08-22T16:13:42.416Z,49.16
2022-08-22T16:18:43.878Z,48.97
2022-08-22T16:23:54.303Z,44.83
2022-08-22T16:29:03.177Z,40.75
2022-08-22T16:34:16.579Z,40.74
2022-08-22T16:39:23.880Z,41.89
2022-08-22T16:44:28.133Z,44.52
2022-08-22T16:49:33.562Z,40.45
2022-08-22T16:54:46.666Z,42.55
2022-08-22T17:00:00.505Z,41.67
2022-08-22T17:05:19.965Z,40.98
2022-08-22T17:10:38.530Z,43.15
2022-08-22T17:16:21.201Z,41.74
2022-08-22T17:21:41.470Z,42.23
2022-08-22T17:26:56.327Z,43.49
2022-08-22T17:32:15.170Z,46.13
2022-08-22T17:37:35.947Z,44.38
2022-08-22T17:42:45.470Z,42.95
2022-08-22T17:47:53.900Z,43.32
2022-08-22T17:53:03.021Z,44.19
2022-08-22T17:58:37.404Z,46.35
2022-08-22T18:03:40.232Z,45.79
2022-08-22T18:14:51.653Z,46.05
2022-08-22T18:20:04.697Z,47.40
2022-08-22T18:25:29.259Z,47.55
2022-08-22T18:30:56.288Z,48.60
2022-08-22T18:36:11.675Z,47.81
2022-08-22T18:41:40.060Z,47.63
2022-08-22T18:46:51.684Z,48.32
2022-08-22T18:52:05.538Z,48.46
2022-08-22T18:57:42.669Z,48.79
2022-08-22T19:03:08.716Z,49.51
2022-08-22T19:08:38.939Z,49.07
2022-08-22T19:14:06.272Z,49.62
2022-08-22T19:19:57.731Z,48.98
2022-08-22T19:25:26.107Z,49.82
2022-08-22T19:30:46.122Z,50.39
2022-08-22T19:35:53.683Z,50.10
2022-08-22T19:40:58.218Z,50.75
2022-08-22T19:46:06.070Z,50.59
2022-08-22T19:51:14.677Z,50.92
2022-08-22T19:56:40.617Z,50.41
2022-08-22T20:02:23.467Z,50.71
2022-08-22T20:07:59.100Z,52.02
2022-08-22T20:13:20.293Z,52.04
2022-08-22T20:18:55.587Z,53.25
2022-08-22T20:24:20.905Z,53.89
2022-08-22T20:29:28.784Z,53.28
2022-08-22T20:34:33.854Z,53.53
2022-08-22T20:39:40.042Z,53.72
2022-08-22T20:44:53.777Z,55.19
2022-08-22T20:50:03.675Z,53.35
2022-08-22T20:55:27.315Z,54.40
2022-08-22T21:00:35.737Z,55.09
2022-08-22T21:05:39.011Z,55.76
2022-08-22T21:11:00.562Z,54.39
2022-08-22T21:16:15.717Z,54.24
2022-08-22T21:21:17.933Z,54.99
2022-08-22T21:26:26.357Z,53.87
2022-08-22T21:31:47.727Z,54.02
2022-08-22T21:36:54.873Z,55.50
2022-08-22T21:41:59.269Z,55.93
2022-08-22T21:47:30.940Z,57.14
2022-08-22T21:52:36.684Z,57.53
2022-08-22T21:57:38.238Z,57.23
2022-08-22T22:02:41.807Z,55.68
2022-08-22T22:07:47.097Z,55.62
2022-08-22T22:12:51.242Z,55.73
2022-08-22T22:17:53.636Z,57.85
2022-08-22T22:22:55.800Z,56.56
2022-08-22T22:27:58.550Z,57.35
2022-08-22T22:33:00.093Z,57.21
2022-08-22T22:38:02.065Z,56.17
2022-08-22T22:43:03.947Z,56.60
2022-08-22T22:48:05.903Z,57.27
2022-08-22T22:53:08.155Z,58.24
2022-08-22T22:58:13.429Z,57.54
2022-08-22T23:03:16.083Z,57.08
2022-08-22T23:08:17.987Z,56.76
2022-08-22T23:13:19.406Z,56.39
2022-08-22T23:18:20.880Z,56.88
2022-08-22T23:23:28.187Z,58.84
2022-08-22T23:28:29.573Z,58.70
2022-08-22T23:33:32.729Z,56.81
2022-08-22T23:38:36.027Z,56.96
2022-08-22T23:43:41.627Z,58.04
2022-08-22T23:48:43.715Z,58.99
2022-08-22T23:53:45.409Z,60.02
2022-08-22T23:58:49.108Z,60.04
